CheckWX is a tool to help pilots better visualize weather data.  It is not intended as a substitute for an official pre-flight weather briefing.

16:06:36 UTC

UADD TAF
Taraz Airport
Taraz, Kazakhstan
TAF UADD 181400Z 1815/1824 16003G08MPS 9999 BKN100

Mar-18@
15:00 UTC

Mar-18 @ 15:00 UTC

Mar-19@
00:00 UTC

Mar-19 @ 00:00 UTC

TAF UADD 181400Z 1815/1824 16003G08MPS 9999 BKN100
Wind
  • 160° at 6 KTS
  • {Gusting to 16 KTS
Cloud Levels
  • Broken at 10,000' AGL